createdAt,value
2022-08-19T00:01:04.910Z,68.39
2022-08-19T00:03:37.748Z,67.83
2022-08-19T00:06:07.112Z,68.17
2022-08-19T00:08:35.444Z,68.73
2022-08-19T00:11:03.307Z,69.23
2022-08-19T00:13:31.630Z,68.89
2022-08-19T00:16:00.279Z,69.19
2022-08-19T00:18:45.253Z,68.84
2022-08-19T00:21:13.348Z,68.53
2022-08-19T00:23:45.143Z,68.77
2022-08-19T00:26:13.360Z,68.33
2022-08-19T00:28:41.989Z,68.40
2022-08-19T00:31:10.545Z,69.01
2022-08-19T00:33:44.615Z,68.58
2022-08-19T00:36:13.906Z,68.73
2022-08-19T00:38:44.537Z,68.98
2022-08-19T00:41:15.980Z,68.85
2022-08-19T00:43:44.187Z,68.70
2022-08-19T00:46:11.860Z,68.95
2022-08-19T00:48:40.632Z,68.68
2022-08-19T00:51:08.900Z,68.87
2022-08-19T00:53:36.784Z,69.25
2022-08-19T00:56:07.508Z,68.78
2022-08-19T00:58:37.586Z,68.66
2022-08-19T01:01:06.488Z,68.75
2022-08-19T01:03:56.914Z,68.99
2022-08-19T01:06:23.261Z,68.94
2022-08-19T01:08:51.273Z,69.16
2022-08-19T01:11:19.296Z,69.55
2022-08-19T06:07:42.478Z,66.87
2022-08-19T06:10:12.912Z,66.57
2022-08-19T06:12:41.541Z,66.65
2022-08-19T06:15:14.947Z,66.36
2022-08-19T06:17:55.626Z,66.26
2022-08-19T06:20:55.489Z,66.45
2022-08-19T06:23:58.778Z,66.17
2022-08-19T06:29:23.842Z,66.72
2022-08-19T06:31:55.548Z,66.14
2022-08-19T06:34:29.272Z,65.46
2022-08-19T06:37:02.550Z,65.25
2022-08-19T06:39:37.577Z,65.85
2022-08-19T06:42:09.151Z,65.88
2022-08-19T06:44:42.888Z,68.34
2022-08-19T06:47:23.940Z,63.86
2022-08-19T06:50:05.461Z,63.25
2022-08-19T06:52:38.312Z,63.53
2022-08-19T06:55:07.387Z,63.54
2022-08-19T06:57:35.658Z,62.42
2022-08-19T07:00:04.627Z,61.18
2022-08-19T07:02:32.285Z,61.56
2022-08-19T07:05:06.678Z,60.75
2022-08-19T07:07:35.845Z,61.19
2022-08-19T07:10:06.181Z,60.67
2022-08-19T07:12:38.028Z,60.71
2022-08-19T07:15:14.381Z,61.39
2022-08-19T07:17:44.494Z,60.70
2022-08-19T07:20:12.816Z,60.33
2022-08-19T07:22:41.851Z,60.08
2022-08-19T07:25:11.298Z,59.83
2022-08-19T07:27:39.712Z,59.68
2022-08-19T07:30:11.755Z,59.91
2022-08-19T07:32:44.039Z,60.52
2022-08-19T07:35:16.241Z,59.50
2022-08-19T07:37:48.944Z,59.41
2022-08-19T07:40:19.443Z,59.10
2022-08-19T07:42:47.577Z,58.46
2022-08-19T07:45:16.875Z,58.02
2022-08-19T07:47:47.831Z,57.96
2022-08-19T07:50:20.918Z,58.08
2022-08-19T07:52:51.064Z,58.35
2022-08-19T07:55:41.080Z,58.38
2022-08-19T07:58:25.860Z,58.99
2022-08-19T08:00:55.215Z,58.45
2022-08-19T08:03:47.879Z,58.84
2022-08-19T08:06:35.410Z,58.64
2022-08-19T08:09:23.129Z,58.11
2022-08-19T08:12:02.024Z,57.77
2022-08-19T08:14:44.173Z,57.39
2022-08-19T08:17:14.482Z,57.11
2022-08-19T08:19:52.134Z,55.97
2022-08-19T08:22:40.800Z,55.81
2022-08-19T08:25:14.563Z,55.00
2022-08-19T08:27:45.311Z,55.36
2022-08-19T08:30:16.962Z,55.06
2022-08-19T08:32:47.893Z,54.71
2022-08-19T08:35:22.071Z,55.19
2022-08-19T08:37:57.179Z,54.38
2022-08-19T08:40:57.058Z,53.68
2022-08-19T08:43:34.007Z,53.21
2022-08-19T08:46:44.164Z,53.16
2022-08-19T08:49:37.765Z,52.87
2022-08-19T08:52:23.834Z,53.16
2022-08-19T08:55:00.327Z,51.88
2022-08-19T08:57:41.075Z,51.56
2022-08-19T09:00:19.113Z,50.84
2022-08-19T09:02:50.976Z,50.29
2022-08-19T09:05:26.040Z,49.62
2022-08-19T09:08:19.270Z,50.14
2022-08-19T09:10:54.958Z,49.37
2022-08-19T09:13:37.539Z,50.65
2022-08-19T09:17:14.641Z,48.75
2022-08-19T09:20:09.426Z,50.26
2022-08-19T09:23:38.403Z,48.71
2022-08-19T09:26:16.525Z,48.03
2022-08-19T09:28:48.324Z,49.19
2022-08-19T09:31:25.469Z,46.67
2022-08-19T09:33:58.429Z,47.00
2022-08-19T09:36:48.617Z,45.37
2022-08-19T09:39:17.981Z,47.35
2022-08-19T09:41:47.656Z,46.66
2022-08-19T09:44:21.900Z,46.08
2022-08-19T09:46:49.925Z,46.20
2022-08-19T09:49:24.403Z,44.75
2022-08-19T09:51:57.918Z,44.46
2022-08-19T09:54:33.430Z,43.84
2022-08-19T09:57:07.680Z,43.90
2022-08-19T09:59:36.246Z,44.52
2022-08-19T10:02:10.907Z,45.10
2022-08-19T10:05:05.066Z,44.47
2022-08-19T10:07:40.939Z,43.01
2022-08-19T12:31:26.065Z,49.75
2022-08-19T12:34:19.630Z,49.72
2022-08-19T12:36:51.286Z,49.51
2022-08-19T12:39:23.573Z,49.75
2022-08-19T12:41:59.135Z,49.33
2022-08-19T12:44:38.366Z,48.72
2022-08-19T12:47:24.285Z,48.46
2022-08-19T12:50:02.643Z,48.84
2022-08-19T12:52:42.715Z,48.11
2022-08-19T12:55:15.837Z,48.21
2022-08-19T12:57:55.495Z,47.71
2022-08-19T13:00:25.522Z,47.42
2022-08-19T13:03:35.509Z,47.82
2022-08-19T13:06:11.166Z,47.67
2022-08-19T13:08:47.370Z,47.77
2022-08-19T13:11:42.532Z,47.81
2022-08-19T13:14:12.838Z,48.58
2022-08-19T13:16:42.993Z,48.11
2022-08-19T13:19:17.720Z,48.68
2022-08-19T13:21:45.788Z,48.01
2022-08-19T13:24:16.911Z,48.32
2022-08-19T13:26:52.807Z,48.84
2022-08-19T13:29:44.736Z,48.81
2022-08-19T13:32:32.475Z,48.46
2022-08-19T13:35:27.695Z,48.87
2022-08-19T13:40:58.352Z,48.45
2022-08-19T13:43:48.550Z,48.23
2022-08-19T13:46:21.741Z,47.49
2022-08-19T13:48:51.398Z,48.18
2022-08-19T13:52:01.462Z,48.23
2022-08-19T13:54:31.281Z,47.90
2022-08-19T13:57:04.853Z,47.90
2022-08-19T13:59:35.549Z,48.26
2022-08-19T14:02:05.861Z,48.33
2022-08-19T14:04:39.727Z,48.92
2022-08-19T14:07:07.665Z,48.41
2022-08-19T14:09:35.291Z,48.26
2022-08-19T14:12:15.501Z,47.40
2022-08-19T14:14:56.927Z,46.50
2022-08-19T14:17:29.424Z,45.91
2022-08-19T14:20:11.400Z,45.93
2022-08-19T14:22:49.246Z,45.25
2022-08-19T14:25:21.546Z,45.03
2022-08-19T14:27:53.925Z,45.93
2022-08-19T14:30:32.080Z,45.57
2022-08-19T14:33:02.831Z,45.61
2022-08-19T14:35:36.115Z,46.01
2022-08-19T14:38:06.253Z,46.24
2022-08-19T14:40:34.243Z,46.39
2022-08-19T14:43:05.905Z,46.73
2022-08-19T14:45:36.954Z,46.54
2022-08-19T14:48:17.819Z,46.80
2022-08-19T14:50:46.679Z,47.04
2022-08-19T14:53:14.238Z,47.57
2022-08-19T14:55:44.363Z,46.73
2022-08-19T14:58:29.204Z,47.46
2022-08-19T15:01:00.761Z,47.41
2022-08-19T15:03:30.017Z,47.33
2022-08-19T15:05:58.946Z,47.51
2022-08-19T15:08:28.214Z,47.28
2022-08-19T15:10:58.136Z,48.02
2022-08-19T15:13:29.632Z,48.31
2022-08-19T15:15:58.391Z,48.08
2022-08-19T15:18:26.595Z,47.94
2022-08-19T15:20:54.475Z,47.70
2022-08-19T15:23:22.717Z,46.99
2022-08-19T15:25:54.728Z,46.74
2022-08-19T15:28:24.356Z,46.23
2022-08-19T15:30:52.304Z,46.70
2022-08-19T15:33:21.738Z,47.24
2022-08-19T15:35:51.929Z,47.34
2022-08-19T15:38:22.530Z,46.81
2022-08-19T15:41:02.463Z,46.69
2022-08-19T15:43:30.111Z,46.80
2022-08-19T15:45:58.005Z,47.37
2022-08-19T15:48:25.727Z,46.81
2022-08-19T15:51:00.893Z,46.74
2022-08-19T15:53:33.927Z,47.08
2022-08-19T15:56:01.305Z,47.55
2022-08-19T15:58:57.451Z,46.86
2022-08-19T16:01:31.777Z,46.73
2022-08-19T16:04:20.596Z,47.43
2022-08-19T16:06:49.819Z,47.96
2022-08-19T16:09:27.523Z,47.94
2022-08-19T16:12:05.388Z,47.30
2022-08-19T16:14:35.625Z,47.60
2022-08-19T16:17:04.663Z,47.84
2022-08-19T16:19:33.545Z,48.02
2022-08-19T16:22:06.328Z,48.07
2022-08-19T16:24:34.204Z,48.43
2022-08-19T16:27:05.185Z,48.34
2022-08-19T16:29:41.551Z,47.94
2022-08-19T16:32:13.399Z,47.79
2022-08-19T16:34:43.424Z,48.33
2022-08-19T16:37:13.463Z,48.28
2022-08-19T16:39:43.615Z,48.35
2022-08-19T16:42:14.764Z,48.46
2022-08-19T16:44:47.894Z,48.27
2022-08-19T16:47:18.423Z,48.49
2022-08-19T16:49:52.821Z,48.34
2022-08-19T16:52:27.437Z,48.00
2022-08-19T16:54:55.329Z,48.78
2022-08-19T16:57:24.318Z,48.56
2022-08-19T16:59:52.995Z,48.62
2022-08-19T17:02:23.614Z,48.53
2022-08-19T17:04:59.477Z,48.97
2022-08-19T17:07:34.440Z,49.10
2022-08-19T17:10:05.944Z,49.17
2022-08-19T17:12:35.405Z,49.56
2022-08-19T17:15:05.200Z,49.43
2022-08-19T17:17:33.486Z,50.06
2022-08-19T17:20:03.278Z,49.74
2022-08-19T17:22:32.084Z,50.28
2022-08-19T17:24:59.538Z,50.44
2022-08-19T17:27:32.180Z,50.42
2022-08-19T17:30:09.071Z,50.54
2022-08-19T17:32:36.706Z,50.90
2022-08-19T17:35:06.555Z,51.22
2022-08-19T17:37:36.649Z,51.26
2022-08-19T17:40:16.565Z,51.46
2022-08-19T17:42:52.891Z,51.55
2022-08-19T17:45:21.491Z,51.93
2022-08-19T17:47:49.216Z,52.23
2022-08-19T17:50:18.143Z,52.40
2022-08-19T17:52:52.859Z,52.22
2022-08-19T17:55:28.970Z,52.47
2022-08-19T17:58:00.579Z,53.06
2022-08-19T18:00:28.252Z,53.06
2022-08-19T18:03:03.766Z,53.08
2022-08-19T18:08:49.453Z,53.17
2022-08-19T18:11:20.022Z,53.26
2022-08-19T18:13:49.880Z,53.48
2022-08-19T18:16:22.625Z,53.54
2022-08-19T18:18:55.977Z,53.46
2022-08-19T18:21:32.699Z,53.70
2022-08-19T18:24:02.110Z,54.27
2022-08-19T18:26:30.695Z,54.65
2022-08-19T18:28:58.621Z,54.73
2022-08-19T18:31:26.350Z,54.98
2022-08-19T18:33:57.291Z,55.03
2022-08-19T18:36:51.962Z,55.03
2022-08-19T18:39:31.589Z,54.95
2022-08-19T18:42:18.849Z,55.07
2022-08-19T18:45:11.561Z,54.85
2022-08-19T18:47:59.304Z,54.95
2022-08-19T18:50:36.283Z,55.18
2022-08-19T18:53:12.552Z,55.23
2022-08-19T18:55:40.516Z,55.32
2022-08-19T18:58:09.299Z,55.18
2022-08-19T19:00:52.684Z,55.79
2022-08-19T19:04:06.487Z,55.63
2022-08-19T19:06:45.037Z,55.64
2022-08-19T19:09:18.090Z,55.64
2022-08-19T19:11:56.544Z,55.77
2022-08-19T19:14:49.396Z,55.55
2022-08-19T19:18:27.506Z,55.76
2022-08-19T19:21:41.523Z,55.95
2022-08-19T19:24:43.920Z,56.21
2022-08-19T19:27:21.220Z,55.81
2022-08-19T19:29:55.029Z,55.95
2022-08-19T19:32:27.629Z,56.00
2022-08-19T19:34:59.939Z,56.01
2022-08-19T19:37:29.287Z,56.03
2022-08-19T19:39:57.561Z,56.05
2022-08-19T19:42:30.445Z,55.99
2022-08-19T19:45:06.042Z,56.36
2022-08-19T19:47:34.861Z,55.96
2022-08-19T19:50:18.574Z,56.12
2022-08-19T19:52:47.825Z,55.73
2022-08-19T19:55:20.499Z,56.01
2022-08-19T19:58:11.776Z,55.64
2022-08-19T20:04:35.565Z,55.36
2022-08-19T20:07:12.860Z,55.15
2022-08-19T20:10:00.439Z,55.34
2022-08-19T20:15:47.973Z,54.95
2022-08-19T20:22:00.279Z,54.99
2022-08-19T20:24:44.528Z,54.87
2022-08-19T20:27:13.169Z,54.98
2022-08-19T20:29:57.064Z,55.45
2022-08-19T20:32:42.989Z,55.64
2022-08-19T20:35:23.496Z,55.57
2022-08-19T20:42:01.984Z,55.81
2022-08-19T20:44:39.328Z,56.28
2022-08-19T20:47:16.522Z,55.83
2022-08-19T20:49:56.338Z,55.44
2022-08-19T20:52:26.198Z,55.67
2022-08-19T20:54:53.971Z,55.53
2022-08-19T20:57:30.984Z,55.13
2022-08-19T21:00:15.304Z,55.38
2022-08-19T21:02:47.406Z,55.93
2022-08-19T21:05:20.144Z,55.68
2022-08-19T21:07:49.647Z,55.71
2022-08-19T21:10:23.953Z,55.50
2022-08-19T21:12:54.706Z,55.45
2022-08-19T21:15:25.103Z,55.50
2022-08-19T21:18:03.800Z,55.58
2022-08-19T21:20:33.022Z,55.67
2022-08-19T21:23:13.190Z,55.87
2022-08-19T21:25:41.344Z,56.09
2022-08-19T21:28:58.458Z,55.86
2022-08-19T21:31:33.649Z,55.74
2022-08-19T21:34:01.580Z,53.74
2022-08-19T21:36:29.074Z,53.87
2022-08-19T21:39:16.577Z,53.68
2022-08-19T21:42:09.903Z,53.78
2022-08-19T21:44:37.833Z,54.71
2022-08-19T21:50:38.231Z,54.13
2022-08-19T21:53:18.739Z,54.71
2022-08-19T21:55:52.826Z,54.88
2022-08-19T21:58:28.228Z,55.29
2022-08-19T22:01:08.481Z,54.96
2022-08-19T22:03:40.886Z,55.46
2022-08-19T22:06:12.836Z,55.50
2022-08-19T22:08:45.059Z,55.45
2022-08-19T22:11:15.567Z,55.20
2022-08-19T22:13:53.898Z,55.33
2022-08-19T22:16:22.617Z,55.58
2022-08-19T22:18:52.333Z,55.74
2022-08-19T22:21:40.271Z,56.16
2022-08-19T22:24:21.358Z,56.07
2022-08-19T22:26:52.704Z,55.98
2022-08-19T22:29:22.632Z,55.93
2022-08-19T22:32:27.149Z,56.39
2022-08-19T22:35:35.052Z,56.32
2022-08-19T22:38:06.818Z,56.36
2022-08-19T22:40:39.990Z,56.75
2022-08-19T22:43:14.833Z,56.60
2022-08-19T22:45:45.080Z,56.64
2022-08-19T22:48:15.620Z,56.04
2022-08-19T22:51:07.371Z,56.47
2022-08-19T22:53:39.378Z,56.73
2022-08-19T22:56:14.482Z,56.83
2022-08-19T22:58:44.349Z,56.83
2022-08-19T23:01:27.327Z,56.91
2022-08-19T23:03:58.839Z,57.12
2022-08-19T23:06:33.277Z,57.49
2022-08-19T23:09:16.891Z,57.82
2022-08-19T23:11:48.525Z,57.71
2022-08-19T23:14:19.424Z,57.56
2022-08-19T23:16:59.269Z,57.67
2022-08-19T23:19:35.942Z,57.67
2022-08-19T23:22:05.846Z,57.85
2022-08-19T23:24:33.925Z,58.17
2022-08-19T23:27:24.825Z,58.51
2022-08-19T23:30:18.688Z,58.46
2022-08-19T23:32:46.924Z,58.68
2022-08-19T23:35:14.992Z,58.73
2022-08-19T23:37:48.489Z,58.62
2022-08-19T23:40:17.541Z,58.80
2022-08-19T23:42:46.791Z,58.71
2022-08-19T23:45:15.581Z,59.12
2022-08-19T23:47:53.329Z,59.06
2022-08-19T23:50:22.341Z,59.34
2022-08-19T23:52:55.921Z,59.52
2022-08-19T23:55:27.427Z,59.82
2022-08-19T23:57:55.117Z,60.03
